createdAt,value
2023-01-27T00:01:08.185Z,-2.26
2023-01-27T00:03:42.341Z,-2.29
2023-01-27T00:06:29.175Z,-2.29
2023-01-27T00:09:02.261Z,-2.31
2023-01-27T00:12:07.188Z,-2.31
2023-01-27T00:14:40.268Z,-2.32
2023-01-27T00:17:34.164Z,-2.31
2023-01-27T00:20:41.211Z,-2.30
2023-01-27T00:23:40.043Z,-2.30
2023-01-27T00:26:27.203Z,-2.32
2023-01-27T00:29:00.351Z,-2.35
2023-01-27T00:32:05.184Z,-2.34
2023-01-27T00:34:39.485Z,-2.36
2023-01-27T00:37:26.170Z,-2.37
2023-01-27T00:39:59.264Z,-2.39
2023-01-27T00:42:46.168Z,-2.39
2023-01-27T00:45:37.969Z,-2.42
2023-01-27T00:48:24.162Z,-2.44
2023-01-27T00:50:57.292Z,-2.45
2023-01-27T00:53:44.185Z,-2.46
2023-01-27T00:56:18.621Z,-2.48
2023-01-27T00:59:05.199Z,-2.54
2023-01-27T01:01:46.216Z,-2.56
2023-01-27T01:04:40.183Z,-2.59
2023-01-27T01:07:34.173Z,-2.62
2023-01-27T01:10:21.211Z,-2.62
2023-01-27T01:12:54.335Z,-2.64
2023-01-27T01:15:48.194Z,-2.67
2023-01-27T01:18:22.430Z,-2.72
2023-01-27T01:21:09.194Z,-2.75
2023-01-27T01:23:47.331Z,-2.77
2023-01-27T01:26:34.190Z,-2.80
2023-01-27T01:29:07.312Z,-2.82
2023-01-27T01:31:57.208Z,-2.83
2023-01-27T01:34:30.288Z,-2.83
2023-01-27T01:37:17.201Z,-2.87
2023-01-27T01:39:50.622Z,-2.90
2023-01-27T01:43:06.193Z,-2.92
2023-01-27T01:45:49.194Z,-2.96
2023-01-27T01:49:02.231Z,-3.00
2023-01-27T01:51:57.214Z,-3.02
2023-01-27T01:54:41.279Z,-3.04
2023-01-27T01:57:33.202Z,-3.06
2023-01-27T02:00:08.283Z,-3.06
2023-01-27T02:02:56.226Z,-3.05
2023-01-27T02:05:36.292Z,-3.06
2023-01-27T02:08:34.209Z,-3.07
2023-01-27T02:11:08.337Z,-3.08
2023-01-27T02:13:55.223Z,-3.08
2023-01-27T02:16:35.235Z,-3.09
2023-01-27T02:19:41.212Z,-3.08
2023-01-27T02:22:53.247Z,-3.10
2023-01-27T02:25:50.209Z,-3.08
2023-01-27T02:28:38.243Z,-3.08
2023-01-27T02:31:11.448Z,-3.08
2023-01-27T02:34:01.206Z,-3.07
2023-01-27T02:36:38.318Z,-3.05
2023-01-27T02:39:29.212Z,-3.05
2023-01-27T02:42:12.225Z,-3.05
2023-01-27T02:45:06.218Z,-3.01
2023-01-27T02:47:53.251Z,-2.97
2023-01-27T02:50:26.379Z,-2.97
2023-01-27T02:53:14.211Z,-2.97
2023-01-27T02:55:47.340Z,-2.95
2023-01-27T02:58:34.232Z,-2.92
2023-01-27T03:01:07.364Z,-2.90
2023-01-27T03:03:54.224Z,-2.89
2023-01-27T03:06:34.220Z,-2.89
2023-01-27T03:09:21.253Z,-2.86
2023-01-27T03:12:19.219Z,-2.87
2023-01-27T03:15:31.238Z,-2.89
2023-01-27T03:18:25.227Z,-2.89
2023-01-27T03:21:21.235Z,-2.87
2023-01-27T03:24:08.284Z,-2.86
2023-01-27T03:26:41.331Z,-2.82
2023-01-27T03:29:46.216Z,-2.81
2023-01-27T03:32:26.241Z,-2.81
2023-01-27T03:35:20.273Z,-2.80
2023-01-27T03:38:26.262Z,-2.77
2023-01-27T03:41:19.192Z,-2.76
2023-01-27T03:44:18.208Z,-2.76
2023-01-27T03:46:58.402Z,-2.74
2023-01-27T03:49:38.285Z,-2.75
2023-01-27T03:52:18.359Z,-2.73
2023-01-27T03:54:58.299Z,-2.70
2023-01-27T03:57:38.254Z,-2.70
2023-01-27T04:00:19.239Z,-2.68
2023-01-27T04:03:24.273Z,-2.67
2023-01-27T04:06:16.226Z,-2.67
2023-01-27T04:09:04.254Z,-2.65
2023-01-27T04:12:07.270Z,-2.65
2023-01-27T04:15:01.231Z,-2.64
2023-01-27T04:17:49.243Z,-2.67
2023-01-27T04:20:22.364Z,-2.68
2023-01-27T04:23:09.249Z,-2.68
2023-01-27T04:25:45.333Z,-2.68
2023-01-27T04:28:43.792Z,-2.66
2023-01-27T04:31:18.603Z,-2.66
2023-01-27T04:34:08.247Z,-2.65
2023-01-27T04:36:48.233Z,-2.64
2023-01-27T04:39:38.269Z,-2.64
2023-01-27T04:42:11.357Z,-2.63
2023-01-27T04:44:58.273Z,-2.61
2023-01-27T04:47:38.254Z,-2.62
2023-01-27T04:50:32.281Z,-2.61
2023-01-27T04:53:19.263Z,-2.59
2023-01-27T04:56:02.235Z,-2.59
2023-01-27T04:58:56.268Z,-2.61
2023-01-27T05:01:54.786Z,-2.60
2023-01-27T05:04:48.269Z,-2.61
2023-01-27T05:07:42.264Z,-2.63
2023-01-27T05:10:29.256Z,-2.63
2023-01-27T05:13:02.486Z,-2.62
2023-01-27T05:15:49.327Z,-2.64
2023-01-27T05:18:29.282Z,-2.63
2023-01-27T05:21:21.253Z,-2.65
2023-01-27T05:23:54.458Z,-2.65
2023-01-27T05:26:42.441Z,-2.63
2023-01-27T05:29:23.254Z,-2.66
2023-01-27T05:32:17.366Z,-2.66
2023-01-27T05:35:04.272Z,-2.65
2023-01-27T05:37:44.260Z,-2.63
2023-01-27T05:40:31.362Z,-2.61
2023-01-27T05:43:04.382Z,-2.60
2023-01-27T05:45:51.273Z,-2.62
2023-01-27T05:48:24.385Z,-2.62
2023-01-27T05:51:14.617Z,-2.61
2023-01-27T05:53:49.424Z,-2.61
2023-01-27T05:56:36.292Z,-2.60
2023-01-27T05:59:16.265Z,-2.58
2023-01-27T06:02:03.351Z,-2.57
2023-01-27T06:04:43.297Z,-2.60
2023-01-27T06:07:37.284Z,-2.60
2023-01-27T06:10:31.291Z,-2.60
2023-01-27T06:13:18.285Z,-2.62
2023-01-27T06:15:54.960Z,-2.67
2023-01-27T06:18:48.289Z,-2.69
2023-01-27T06:21:44.264Z,-2.66
2023-01-27T06:24:31.347Z,-2.65
2023-01-27T06:27:04.460Z,-2.65
2023-01-27T06:29:52.413Z,-2.62
2023-01-27T06:32:25.456Z,-2.61
2023-01-27T06:35:12.536Z,-2.59
2023-01-27T06:37:46.480Z,-2.59
2023-01-27T06:40:35.282Z,-2.60
2023-01-27T06:43:16.692Z,-2.57
2023-01-27T06:46:10.361Z,-2.59
2023-01-27T06:49:04.318Z,-2.58
2023-01-27T06:51:51.307Z,-2.57
2023-01-27T06:54:31.310Z,-2.55
2023-01-27T06:57:18.309Z,-2.59
2023-01-27T06:59:58.319Z,-2.57
2023-01-27T07:02:52.334Z,-2.53
2023-01-27T07:05:40.313Z,-2.51
2023-01-27T07:08:14.442Z,-2.50
2023-01-27T07:11:01.298Z,-2.48
2023-01-27T07:13:34.415Z,-2.49
2023-01-27T07:16:21.328Z,-2.48
2023-01-27T07:18:55.395Z,-2.46
2023-01-27T07:21:42.314Z,-2.44
2023-01-27T07:24:23.344Z,-2.46
2023-01-27T07:27:10.296Z,-2.45
2023-01-27T07:29:50.326Z,-2.43
2023-01-27T07:32:37.378Z,-2.40
2023-01-27T07:35:18.345Z,-2.38
2023-01-27T07:38:12.319Z,-2.40
2023-01-27T07:41:02.315Z,-2.39
2023-01-27T07:43:42.307Z,-2.36
2023-01-27T07:46:36.307Z,-2.31
2023-01-27T07:49:32.324Z,-2.32
2023-01-27T07:52:19.300Z,-2.31
2023-01-27T07:54:52.499Z,-2.25
2023-01-27T07:57:42.309Z,-2.24
2023-01-27T08:00:23.378Z,-2.19
2023-01-27T08:03:17.348Z,-2.13
2023-01-27T08:06:04.352Z,-2.11
2023-01-27T08:08:44.334Z,-2.05
2023-01-27T08:11:34.318Z,-2.01
2023-01-27T08:14:14.329Z,-2.00
2023-01-27T08:17:10.355Z,-1.97
2023-01-27T08:20:07.377Z,-1.96
2023-01-27T08:23:02.690Z,-1.91
2023-01-27T08:25:55.304Z,-1.85
2023-01-27T08:28:37.392Z,-1.83
2023-01-27T08:31:24.455Z,-1.80
2023-01-27T08:34:00.495Z,-1.81
2023-01-27T08:36:51.376Z,-1.81
2023-01-27T08:39:24.496Z,-1.81
2023-01-27T08:42:11.386Z,-1.79
2023-01-27T08:44:51.381Z,-1.80
2023-01-27T08:47:38.335Z,-1.81
2023-01-27T08:50:18.319Z,-1.83
2023-01-27T08:53:12.436Z,-1.83
2023-01-27T08:56:07.369Z,-1.82
2023-01-27T08:58:55.377Z,-1.79
2023-01-27T09:01:28.530Z,-1.75
2023-01-27T09:04:15.398Z,-1.70
2023-01-27T09:06:49.945Z,-1.71
2023-01-27T09:09:36.332Z,-1.69
2023-01-27T09:12:09.578Z,-1.74
2023-01-27T09:14:56.347Z,-1.69
2023-01-27T09:17:29.478Z,-1.67
2023-01-27T09:20:17.465Z,-1.67
2023-01-27T09:22:50.466Z,-1.65
2023-01-27T09:25:38.361Z,-1.61
2023-01-27T09:28:23.378Z,-1.56
2023-01-27T09:31:18.556Z,-1.53
2023-01-27T09:34:05.406Z,-1.54
2023-01-27T09:36:51.385Z,-1.54
2023-01-27T09:39:50.417Z,-1.55
2023-01-27T09:42:54.360Z,-1.55
2023-01-27T09:46:21.423Z,-1.58
2023-01-27T09:49:30.348Z,-1.63
2023-01-27T09:52:13.434Z,-1.64
2023-01-27T09:55:30.356Z,-1.65
2023-01-27T09:58:29.382Z,-1.75
2023-01-27T10:01:50.443Z,-1.76
2023-01-27T10:04:34.582Z,-1.82
2023-01-27T10:07:24.358Z,-1.85
2023-01-27T10:10:46.408Z,-1.90
2023-01-27T10:13:53.381Z,-1.86
2023-01-27T10:16:58.528Z,-1.86
2023-01-27T10:20:10.368Z,-1.84
2023-01-27T10:23:04.351Z,-1.79
2023-01-27T10:26:27.384Z,-1.81
2023-01-27T10:29:37.384Z,-1.85
2023-01-27T10:32:34.417Z,-1.87
2023-01-27T10:35:22.518Z,-1.87
2023-01-27T10:38:21.396Z,-1.85
2023-01-27T10:41:19.392Z,-1.87
2023-01-27T10:44:15.392Z,-1.83
2023-01-27T10:47:15.393Z,-1.85
2023-01-27T10:49:54.581Z,-1.83
2023-01-27T10:53:05.387Z,-1.85
2023-01-27T10:56:08.446Z,-1.79
2023-01-27T10:59:28.412Z,-1.73
2023-01-27T11:02:31.388Z,-1.72
2023-01-27T11:05:09.532Z,-1.74
2023-01-27T11:08:03.389Z,-1.75
2023-01-27T11:11:25.412Z,-1.74
2023-01-27T11:14:34.428Z,-1.71
2023-01-27T11:17:41.393Z,-1.65
2023-01-27T11:20:43.396Z,-1.66
2023-01-27T11:23:46.424Z,-1.64
2023-01-27T11:26:51.383Z,-1.63
2023-01-27T11:29:42.767Z,-1.69
2023-01-27T11:32:39.409Z,-1.66
2023-01-27T11:35:20.502Z,-1.64
2023-01-27T11:38:15.511Z,-1.64
2023-01-27T11:40:51.731Z,-1.64
2023-01-27T11:43:38.461Z,-1.63
2023-01-27T11:46:21.396Z,-1.63
2023-01-27T11:49:16.433Z,-1.59
2023-01-27T11:52:27.390Z,-1.57
2023-01-27T11:55:21.302Z,-1.61
2023-01-27T11:58:36.444Z,-1.57
2023-01-27T12:01:31.429Z,-1.62
2023-01-27T12:04:04.867Z,-1.65
2023-01-27T12:06:53.393Z,-1.63
2023-01-27T12:09:51.414Z,-1.65
2023-01-27T12:12:43.407Z,-1.66
2023-01-27T12:15:22.555Z,-1.67
2023-01-27T12:18:20.429Z,-1.67
2023-01-27T12:21:17.406Z,-1.72
2023-01-27T12:24:11.425Z,-1.72
2023-01-27T12:27:06.418Z,-1.78
2023-01-27T12:30:06.424Z,-1.74
2023-01-27T12:32:47.529Z,-1.82
2023-01-27T12:35:43.479Z,-1.81
2023-01-27T12:38:30.419Z,-1.80
2023-01-27T12:41:19.416Z,-1.79
2023-01-27T12:44:00.524Z,-1.78
2023-01-27T12:47:01.501Z,-1.77
2023-01-27T12:49:53.405Z,-1.78
2023-01-27T12:52:47.411Z,-1.77
2023-01-27T12:55:43.489Z,-1.79
2023-01-27T12:59:04.424Z,-1.82
2023-01-27T13:01:50.563Z,-1.83
2023-01-27T13:04:34.450Z,-1.83
2023-01-27T13:07:30.479Z,-1.86
2023-01-27T13:10:28.486Z,-1.85
2023-01-27T13:13:07.598Z,-1.82
2023-01-27T13:16:39.137Z,-1.78
2023-01-27T13:19:31.435Z,-1.80
2023-01-27T13:22:33.423Z,-1.78
2023-01-27T13:25:25.420Z,-1.78
2023-01-27T13:28:04.566Z,-1.82
2023-01-27T13:30:57.489Z,-1.82
2023-01-27T13:34:09.492Z,-1.79
2023-01-27T13:37:07.431Z,-1.77
2023-01-27T13:40:05.469Z,-1.76
2023-01-27T13:42:47.595Z,-1.77
2023-01-27T13:45:39.492Z,-1.74
2023-01-27T13:48:36.573Z,-1.76
2023-01-27T13:51:28.484Z,-1.76
2023-01-27T13:54:18.471Z,-1.79
2023-01-27T13:57:43.417Z,-1.80
2023-01-27T14:00:51.304Z,-1.84
2023-01-27T14:03:57.325Z,-1.83
2023-01-27T14:07:14.583Z,-1.89
2023-01-27T14:10:27.425Z,-1.93
2023-01-27T14:13:22.560Z,-1.91
2023-01-27T14:16:28.483Z,-1.97
2023-01-27T14:19:16.500Z,-1.99
2023-01-27T14:22:31.424Z,-1.98
2023-01-27T14:25:43.489Z,-1.98
2023-01-27T14:28:41.495Z,-2.04
2023-01-27T14:31:21.586Z,-2.04
2023-01-27T14:34:30.481Z,-2.03
2023-01-27T14:37:35.245Z,-2.00
2023-01-27T14:40:28.479Z,-2.01
2023-01-27T14:43:28.458Z,-2.03
2023-01-27T14:46:47.515Z,-2.07
2023-01-27T14:49:55.504Z,-2.10
2023-01-27T14:52:34.570Z,-2.09
2023-01-27T14:55:36.477Z,-2.12
2023-01-27T14:58:28.453Z,-2.16
2023-01-27T15:01:42.485Z,-2.13
2023-01-27T15:04:39.491Z,-2.11
2023-01-27T15:07:17.607Z,-2.13
2023-01-27T15:10:07.485Z,-2.17
2023-01-27T15:13:06.924Z,-2.18
2023-01-27T15:16:04.615Z,-2.21
2023-01-27T15:19:10.568Z,-2.18
2023-01-27T15:22:00.452Z,-2.20
2023-01-27T15:24:33.587Z,-2.22
2023-01-27T15:27:20.471Z,-2.16
2023-01-27T15:29:53.573Z,-2.19
2023-01-27T15:32:44.484Z,-2.20
2023-01-27T15:35:48.465Z,-2.15
2023-01-27T15:38:46.515Z,-2.16
2023-01-27T15:41:33.489Z,-2.13
2023-01-27T15:44:38.504Z,-2.14
2023-01-27T15:47:38.471Z,-2.12
2023-01-27T15:50:34.526Z,-2.11
2023-01-27T15:53:23.586Z,-2.11
2023-01-27T15:56:11.489Z,-2.13
2023-01-27T15:58:51.581Z,-2.12
2023-01-27T16:01:42.462Z,-2.11
2023-01-27T16:04:44.626Z,-2.10
2023-01-27T16:07:54.473Z,-2.11
2023-01-27T16:10:38.528Z,-2.13
2023-01-27T16:13:43.502Z,-2.14
2023-01-27T16:16:37.508Z,-2.16
2023-01-27T16:19:16.667Z,-2.12
2023-01-27T16:22:13.492Z,-2.16
2023-01-27T16:24:56.269Z,-2.16
2023-01-27T16:28:13.531Z,-2.13
2023-01-27T16:31:15.558Z,-2.13
2023-01-27T16:34:13.493Z,-2.17
2023-01-27T16:37:38.544Z,-2.21
2023-01-27T16:40:21.494Z,-2.24
2023-01-27T16:43:21.537Z,-2.25
2023-01-27T16:46:04.540Z,-2.25
2023-01-27T16:49:02.525Z,-2.26
2023-01-27T16:51:50.532Z,-2.22
2023-01-27T16:54:35.741Z,-2.22
2023-01-27T16:57:49.504Z,-2.22
2023-01-27T17:00:28.625Z,-2.23
2023-01-27T17:03:23.550Z,-2.28
2023-01-27T17:06:07.506Z,-2.27
2023-01-27T17:09:02.551Z,-2.29
2023-01-27T17:11:51.498Z,-2.28
2023-01-27T17:14:32.134Z,-2.29
2023-01-27T17:17:25.538Z,-2.36
2023-01-27T17:20:04.722Z,-2.35
2023-01-27T17:22:51.545Z,-2.35
2023-01-27T17:25:43.499Z,-2.32
2023-01-27T17:28:41.541Z,-2.36
2023-01-27T17:31:37.810Z,-2.41
2023-01-27T17:34:27.539Z,-2.41
2023-01-27T17:37:23.680Z,-2.42
2023-01-27T17:40:21.547Z,-2.46
2023-01-27T17:42:55.596Z,-2.44
2023-01-27T17:45:42.526Z,-2.43
2023-01-27T17:48:17.658Z,-2.51
2023-01-27T17:51:04.549Z,-2.55
2023-01-27T17:53:44.565Z,-2.56
2023-01-27T17:56:38.526Z,-2.52
2023-01-27T17:59:19.761Z,-2.50
2023-01-27T18:02:12.533Z,-2.49
2023-01-27T18:04:49.595Z,-2.53
2023-01-27T18:07:37.537Z,-2.50
2023-01-27T18:10:32.632Z,-2.50
2023-01-27T18:13:22.534Z,-2.53
2023-01-27T18:16:05.579Z,-2.53
2023-01-27T18:18:53.548Z,-2.53
2023-01-27T18:21:42.552Z,-2.55
2023-01-27T18:24:31.583Z,-2.59
2023-01-27T18:27:04.621Z,-2.65
2023-01-27T18:29:51.573Z,-2.69
2023-01-27T18:32:28.648Z,-2.67
2023-01-27T18:35:48.551Z,-2.69
2023-01-27T18:38:42.573Z,-2.68
2023-01-27T18:41:44.529Z,-2.67
2023-01-27T18:44:41.541Z,-2.68
2023-01-27T18:47:34.590Z,-2.67
2023-01-27T18:50:31.571Z,-2.67
2023-01-27T18:53:28.534Z,-2.75
2023-01-27T18:56:22.581Z,-2.69
2023-01-27T18:59:19.542Z,-2.66
2023-01-27T19:02:07.670Z,-2.68
2023-01-27T19:04:40.639Z,-2.70
2023-01-27T19:07:27.586Z,-2.74
2023-01-27T19:10:07.546Z,-2.73
2023-01-27T19:13:01.594Z,-2.70
2023-01-27T19:16:01.617Z,-2.75
2023-01-27T19:18:49.549Z,-2.75
2023-01-27T19:21:30.526Z,-2.71
2023-01-27T19:24:24.614Z,-2.68
2023-01-27T19:27:13.967Z,-2.71
2023-01-27T19:29:54.553Z,-2.73
2023-01-27T19:32:41.585Z,-2.75
2023-01-27T19:35:22.539Z,-2.74
2023-01-27T19:38:13.864Z,-2.73
2023-01-27T19:40:54.567Z,-2.69
2023-01-27T19:43:41.592Z,-2.68
2023-01-27T19:46:31.711Z,-2.67
2023-01-27T19:49:33.568Z,-2.67
2023-01-27T19:52:20.537Z,-2.69
2023-01-27T19:54:53.627Z,-2.67
2023-01-27T19:57:42.996Z,-2.67
2023-01-27T20:00:37.671Z,-2.71
2023-01-27T20:03:24.571Z,-2.75
2023-01-27T20:05:57.930Z,-2.78
2023-01-27T20:08:44.547Z,-2.80
2023-01-27T20:11:36.817Z,-2.80
2023-01-27T20:14:25.562Z,-2.78
2023-01-27T20:16:59.614Z,-2.74
2023-01-27T20:19:54.551Z,-2.78
2023-01-27T20:22:48.571Z,-2.76
2023-01-27T20:25:35.605Z,-2.78
2023-01-27T20:28:17.858Z,-2.78
2023-01-27T20:31:11.602Z,-2.82
2023-01-27T20:34:05.611Z,-2.90
2023-01-27T20:36:52.597Z,-2.90
2023-01-27T20:39:25.747Z,-2.89
2023-01-27T20:42:14.586Z,-2.90
2023-01-27T20:44:47.743Z,-2.87
2023-01-27T20:47:34.574Z,-2.90
2023-01-27T20:50:07.695Z,-2.92
2023-01-27T20:52:57.756Z,-2.96
2023-01-27T20:55:31.531Z,-2.92
2023-01-27T20:58:18.586Z,-2.91
2023-01-27T21:00:58.585Z,-2.88
2023-01-27T21:03:53.599Z,-2.86
2023-01-27T21:06:40.584Z,-2.90
2023-01-27T21:09:13.669Z,-2.92
2023-01-27T21:12:00.586Z,-2.87
2023-01-27T21:14:33.739Z,-2.90
2023-01-27T21:17:20.586Z,-2.88
2023-01-27T21:19:53.665Z,-2.84
2023-01-27T21:22:41.608Z,-2.85
2023-01-27T21:25:21.590Z,-2.86
2023-01-27T21:28:08.567Z,-2.90
2023-01-27T21:30:41.765Z,-2.91
2023-01-27T21:33:28.564Z,-2.93
2023-01-27T21:36:01.700Z,-2.92
2023-01-27T21:38:48.574Z,-2.91
2023-01-27T21:41:43.416Z,-2.92
2023-01-27T21:44:53.613Z,-3.01
2023-01-27T21:47:26.701Z,-3.01
2023-01-27T21:50:13.608Z,-2.99
2023-01-27T21:52:49.660Z,-2.97
2023-01-27T21:55:40.623Z,-2.99
2023-01-27T21:58:13.960Z,-2.96
2023-01-27T22:01:00.688Z,-2.99
2023-01-27T22:03:44.684Z,-2.98
2023-01-27T22:06:38.602Z,-3.00
2023-01-27T22:09:27.593Z,-3.04
2023-01-27T22:12:00.683Z,-3.03
2023-01-27T22:14:47.559Z,-3.01
2023-01-27T22:17:20.680Z,-3.00
2023-01-27T22:20:14.599Z,-2.97
2023-01-27T22:23:08.587Z,-2.97
2023-01-27T22:25:56.577Z,-3.02
2023-01-27T22:28:36.602Z,-2.98
2023-01-27T22:31:23.610Z,-3.01
2023-01-27T22:33:56.714Z,-3.00
2023-01-27T22:36:43.606Z,-2.96
2023-01-27T22:39:17.773Z,-2.97
2023-01-27T22:42:04.595Z,-3.01
2023-01-27T22:44:37.676Z,-3.01
2023-01-27T22:47:25.591Z,-3.02
2023-01-27T22:50:05.605Z,-2.99
2023-01-27T22:52:59.635Z,-2.97
2023-01-27T22:55:46.607Z,-3.00
2023-01-27T22:58:19.686Z,-3.01
2023-01-27T23:01:06.679Z,-2.99
2023-01-27T23:03:40.727Z,-2.98
2023-01-27T23:06:27.626Z,-2.99
2023-01-27T23:09:07.607Z,-3.01
2023-01-27T23:12:01.656Z,-2.99
2023-01-27T23:14:48.597Z,-2.94
2023-01-27T23:17:21.695Z,-2.98
2023-01-27T23:20:15.616Z,-3.04
2023-01-27T23:23:09.602Z,-3.05
2023-01-27T23:25:56.612Z,-3.03
2023-01-27T23:28:29.803Z,-3.03
2023-01-27T23:31:18.678Z,-3.04
2023-01-27T23:33:51.734Z,-3.02
2023-01-27T23:36:38.607Z,-2.99
2023-01-27T23:39:11.735Z,-2.95
2023-01-27T23:41:58.617Z,-2.94
2023-01-27T23:44:38.620Z,-2.91
2023-01-27T23:47:35.344Z,-2.92
2023-01-27T23:50:28.602Z,-2.94
2023-01-27T23:53:22.616Z,-2.92
2023-01-27T23:56:09.633Z,-2.91
2023-01-27T23:58:42.734Z,-2.92
